Time;durP1;ratioP1;P1;durP2;ratioP2;P2;SDS_P1;SDS_P2;PMS_P1;PMS_P2;Temp;Humidity;BMP_temperature;BMP_pressure;BME280_temperature;BME280_humidity;BME280_pressure;Samples;Min_cycle;Max_cycle;Signal;HPM_P1;HPM_P2
2023/08/10 00:01:41;;;;;;;8.05;3.55;;;;;;;;;;5131067;27;20058;-74
2023/08/10 00:04:07;;;;;;;5.18;3.50;;;;;;;;;;5130807;27;20031;-73
2023/08/10 00:06:33;;;;;;;4.10;3.40;;;;;;;;;;5095506;28;20049;-74
2023/08/10 00:08:59;;;;;;;5.57;3.40;;;;;;;;;;5130686;27;20028;-74
2023/08/10 00:11:25;;;;;;;3.88;3.40;;;;;;;;;;5130948;27;20054;-74
2023/08/10 00:13:51;;;;;;;9.30;3.38;;;;;;;;;;5130788;27;20513;-73
2023/08/10 00:16:17;;;;;;;7.88;3.88;;;;;;;;;;5112113;28;20039;-74
2023/08/10 00:18:44;;;;;;;4.30;3.90;;;;;;;;;;5112392;27;20084;-73
2023/08/10 00:21:10;;;;;;;4.57;3.60;;;;;;;;;;5130721;27;20070;-74
2023/08/10 00:23:36;;;;;;;3.72;3.42;;;;;;;;;;5112360;27;20523;-74
2023/08/10 00:26:03;;;;;;;10.10;4.40;;;;;;;;;;5130776;27;20039;-75
2023/08/10 00:28:28;;;;;;;6.88;3.65;;;;;;;;;;5130829;27;20040;-74
2023/08/10 00:30:55;;;;;;;5.28;4.10;;;;;;;;;;5131204;27;20042;-74
2023/08/10 00:33:21;;;;;;;6.63;4.05;;;;;;;;;;5115183;28;20553;-75
2023/08/10 00:35:47;;;;;;;7.93;4.05;;;;;;;;;;5113229;27;20126;-72
2023/08/10 00:38:13;;;;;;;4.10;3.70;;;;;;;;;;5130799;27;20027;-73
2023/08/10 00:40:39;;;;;;;7.07;4.43;;;;;;;;;;5130654;27;20039;-73
2023/08/10 00:43:05;;;;;;;5.68;4.00;;;;;;;;;;5133997;27;20118;-74
2023/08/10 00:45:31;;;;;;;4.15;3.85;;;;;;;;;;5116386;27;20117;-73
2023/08/10 00:47:57;;;;;;;4.22;3.92;;;;;;;;;;5134346;27;20046;-73
2023/08/10 00:50:24;;;;;;;8.80;4.63;;;;;;;;;;5116018;27;20031;-74
2023/08/10 00:52:50;;;;;;;6.25;4.28;;;;;;;;;;5134606;27;20031;-72
2023/08/10 00:55:16;;;;;;;4.60;4.20;;;;;;;;;;5116257;27;20051;-75
2023/08/10 00:57:42;;;;;;;10.02;4.10;;;;;;;;;;5136560;27;20035;-74
2023/08/10 01:00:10;;;;;;;9.10;4.60;;;;;;;;;;5137526;27;20118;-75
2023/08/10 01:02:39;;;;;;;4.72;4.10;;;;;;;;;;5137695;27;20031;-73
2023/08/10 01:05:05;;;;;;;4.57;4.03;;;;;;;;;;5119153;27;20035;-74
2023/08/10 01:07:34;;;;;;;4.75;3.85;;;;;;;;;;5119292;27;20095;-73
2023/08/10 01:10:06;;;;;;;7.75;5.15;;;;;;;;;;5101682;27;20100;-74
2023/08/10 01:12:41;;;;;;;7.50;4.60;;;;;;;;;;5101650;27;20248;-73
2023/08/10 01:15:07;;;;;;;7.55;3.70;;;;;;;;;;5101218;27;20051;-72
2023/08/10 01:17:34;;;;;;;7.38;3.92;;;;;;;;;;5136374;27;20031;-74
2023/08/10 01:20:01;;;;;;;5.82;4.10;;;;;;;;;;5100765;27;20148;-75
2023/08/10 01:22:36;;;;;;;8.48;4.13;;;;;;;;;;5102388;27;20390;-75
2023/08/10 01:25:02;;;;;;;4.28;3.88;;;;;;;;;;5101681;27;20031;-73
2023/08/10 01:27:31;;;;;;;5.65;3.78;;;;;;;;;;5138684;27;20039;-72
2023/08/10 01:29:58;;;;;;;5.22;4.53;;;;;;;;;;5138484;27;20091;-75
2023/08/10 01:32:25;;;;;;;5.90;5.30;;;;;;;;;;5142233;27;20039;-74
2023/08/10 01:34:52;;;;;;;7.85;4.47;;;;;;;;;;5125015;27;20035;-74
2023/08/10 01:37:18;;;;;;;6.65;4.10;;;;;;;;;;5138042;27;20286;-73
2023/08/10 01:39:44;;;;;;;5.18;4.05;;;;;;;;;;5115660;27;20031;-73
2023/08/10 01:42:10;;;;;;;4.43;3.95;;;;;;;;;;5133354;27;20035;-74
2023/08/10 01:44:54;;;;;;;5.47;4.10;;;;;;;;;;5133577;27;20393;-74
2023/08/10 01:47:48;;;;;;;9.38;4.30;;;;;;;;;;5117762;27;20532;-73
2023/08/10 01:50:15;;;;;;;7.63;4.60;;;;;;;;;;5114834;27;20107;-74
2023/08/10 01:52:51;;;;;;;5.10;4.68;;;;;;;;;;5114318;28;20035;-74
2023/08/10 01:55:17;;;;;;;5.18;4.57;;;;;;;;;;5114366;27;20520;-74
2023/08/10 01:57:44;;;;;;;5.18;4.63;;;;;;;;;;5098168;27;20031;-74
2023/08/10 02:00:12;;;;;;;5.50;4.70;;;;;;;;;;5114981;27;20128;-74
2023/08/10 02:02:46;;;;;;;6.85;4.82;;;;;;;;;;5135070;27;20114;-74
2023/08/10 02:05:13;;;;;;;6.82;4.28;;;;;;;;;;5135229;27;20496;-74
2023/08/10 02:07:41;;;;;;;8.13;4.70;;;;;;;;;;5116771;27;20035;-74
2023/08/10 02:10:10;;;;;;;13.95;4.72;;;;;;;;;;5099908;27;20027;-75
2023/08/10 02:12:37;;;;;;;5.85;4.63;;;;;;;;;;5134927;27;20043;-73
2023/08/10 02:15:03;;;;;;;5.15;4.28;;;;;;;;;;5117776;27;20051;-74
2023/08/10 02:17:35;;;;;;;8.07;4.50;;;;;;;;;;5117799;27;20113;-74
2023/08/10 02:20:04;;;;;;;4.90;4.28;;;;;;;;;;5135530;27;20386;-72
2023/08/10 02:22:31;;;;;;;10.10;5.10;;;;;;;;;;5084008;27;20027;-75
2023/08/10 02:24:57;;;;;;;4.18;3.90;;;;;;;;;;5116645;27;20493;-74
2023/08/10 02:27:23;;;;;;;4.50;4.10;;;;;;;;;;5116086;27;20034;-74
2023/08/10 02:29:49;;;;;;;4.97;4.50;;;;;;;;;;5135574;27;20032;-74
2023/08/10 02:32:16;;;;;;;8.15;4.00;;;;;;;;;;5133857;27;20061;-74
2023/08/10 02:34:43;;;;;;;4.22;3.72;;;;;;;;;;5134280;27;20489;-75
2023/08/10 02:37:09;;;;;;;4.28;3.90;;;;;;;;;;5115352;27;20031;-74
2023/08/10 02:39:35;;;;;;;4.93;4.10;;;;;;;;;;5114830;27;20038;-74
2023/08/10 02:42:02;;;;;;;7.30;3.95;;;;;;;;;;5114202;27;20066;-73
2023/08/10 02:44:28;;;;;;;9.82;4.30;;;;;;;;;;5113979;27;20053;-75
2023/08/10 02:46:54;;;;;;;4.35;3.70;;;;;;;;;;5113826;27;20039;-73
2023/08/10 02:49:20;;;;;;;8.30;4.22;;;;;;;;;;5131747;27;20035;-73
2023/08/10 02:51:46;;;;;;;5.75;4.25;;;;;;;;;;5132126;27;20042;-73
2023/08/10 02:54:12;;;;;;;4.53;4.13;;;;;;;;;;5131526;27;20062;-74
2023/08/10 02:56:38;;;;;;;6.20;4.65;;;;;;;;;;5131928;27;20476;-75
2023/08/10 02:59:04;;;;;;;7.72;4.20;;;;;;;;;;5131853;27;20043;-75
2023/08/10 03:01:30;;;;;;;4.50;3.67;;;;;;;;;;5113399;27;20453;-74
2023/08/10 03:03:56;;;;;;;5.85;3.92;;;;;;;;;;5113489;27;20077;-74
2023/08/10 03:06:22;;;;;;;4.97;4.03;;;;;;;;;;5131615;27;20518;-74
2023/08/10 03:08:48;;;;;;;5.53;4.22;;;;;;;;;;5131782;27;20035;-73
2023/08/10 03:11:16;;;;;;;7.15;3.72;;;;;;;;;;5113411;27;20043;-74
2023/08/10 03:13:42;;;;;;;7.53;5.10;;;;;;;;;;5113771;27;20078;-73
2023/08/10 03:16:09;;;;;;;10.82;4.38;;;;;;;;;;5132192;27;20405;-75
2023/08/10 03:18:36;;;;;;;6.13;4.07;;;;;;;;;;5096112;27;20035;-73
2023/08/10 03:21:03;;;;;;;5.22;3.85;;;;;;;;;;5113174;27;20412;-74
2023/08/10 03:23:29;;;;;;;3.78;3.45;;;;;;;;;;5112850;27;20039;-74
2023/08/10 03:25:55;;;;;;;5.32;3.80;;;;;;;;;;5113054;28;20411;-74
2023/08/10 03:28:22;;;;;;;3.92;3.40;;;;;;;;;;5131140;27;20039;-74
2023/08/10 03:30:50;;;;;;;5.88;3.42;;;;;;;;;;5117600;27;20038;-73
2023/08/10 03:33:16;;;;;;;5.28;3.50;;;;;;;;;;5115915;27;20476;-73
2023/08/10 03:35:44;;;;;;;3.88;3.38;;;;;;;;;;5113126;27;20039;-73
2023/08/10 03:38:12;;;;;;;6.95;3.90;;;;;;;;;;5112643;27;20527;-74
2023/08/10 03:40:38;;;;;;;3.83;3.45;;;;;;;;;;5131394;27;20122;-74
2023/08/10 03:43:04;;;;;;;9.90;3.70;;;;;;;;;;5112866;27;20027;-74
2023/08/10 03:45:31;;;;;;;5.68;3.58;;;;;;;;;;5131005;27;20045;-74
2023/08/10 03:47:57;;;;;;;5.25;3.35;;;;;;;;;;5113000;28;20481;-73
2023/08/10 03:50:24;;;;;;;4.07;3.70;;;;;;;;;;5112662;27;20166;-73
2023/08/10 03:52:50;;;;;;;7.97;3.92;;;;;;;;;;5131139;27;20111;-74
2023/08/10 03:55:18;;;;;;;7.20;3.63;;;;;;;;;;5112418;28;20451;-74
2023/08/10 03:57:45;;;;;;;5.93;4.00;;;;;;;;;;5112913;27;20042;-75
2023/08/10 04:00:13;;;;;;;4.25;3.63;;;;;;;;;;5112505;27;20497;-74
2023/08/10 04:02:46;;;;;;;5.60;3.80;;;;;;;;;;5096817;28;20031;-75
2023/08/10 04:05:17;;;;;;;5.38;3.90;;;;;;;;;;5096150;28;20076;-75
2023/08/10 04:07:44;;;;;;;4.00;3.70;;;;;;;;;;5130770;27;20050;-75
2023/08/10 04:10:10;;;;;;;5.10;3.70;;;;;;;;;;5130851;27;20049;-74
2023/08/10 04:12:36;;;;;;;7.60;4.10;;;;;;;;;;5130707;27;20129;-74
2023/08/10 04:15:03;;;;;;;8.23;4.15;;;;;;;;;;5131024;27;20050;-75
2023/08/10 04:17:31;;;;;;;9.95;3.83;;;;;;;;;;5115467;27;20043;-75
2023/08/10 04:19:57;;;;;;;5.93;3.53;;;;;;;;;;5099914;27;20043;-74
2023/08/10 04:22:23;;;;;;;4.68;4.00;;;;;;;;;;5134669;27;20346;-75
2023/08/10 04:24:50;;;;;;;6.10;4.00;;;;;;;;;;5135004;27;20046;-75
2023/08/10 04:27:16;;;;;;;11.27;3.92;;;;;;;;;;5134493;27;20043;-74
2023/08/10 04:29:43;;;;;;;4.50;3.38;;;;;;;;;;5116767;27;20038;-73
2023/08/10 04:32:09;;;;;;;8.07;3.90;;;;;;;;;;5134672;27;20535;-74
2023/08/10 04:34:35;;;;;;;4.45;4.05;;;;;;;;;;5134798;27;20066;-73
2023/08/10 04:37:01;;;;;;;8.13;3.78;;;;;;;;;;5116529;27;20039;-74
2023/08/10 04:39:27;;;;;;;4.30;3.63;;;;;;;;;;5134475;27;20489;-75
2023/08/10 04:41:53;;;;;;;6.68;3.65;;;;;;;;;;5134836;27;20106;-74
2023/08/10 04:44:19;;;;;;;8.10;4.07;;;;;;;;;;5116596;27;20123;-73
2023/08/10 04:46:45;;;;;;;6.10;4.07;;;;;;;;;;5134930;27;20043;-75
2023/08/10 04:49:11;;;;;;;6.10;4.05;;;;;;;;;;5134679;27;20047;-76
2023/08/10 04:51:37;;;;;;;7.88;3.72;;;;;;;;;;5139071;27;20095;-75
2023/08/10 04:54:03;;;;;;;5.00;4.05;;;;;;;;;;5126229;27;20039;-74
2023/08/10 04:56:29;;;;;;;10.13;3.90;;;;;;;;;;5147398;27;20027;-74
2023/08/10 04:58:55;;;;;;;8.68;4.82;;;;;;;;;;5140902;27;20096;-75
2023/08/10 05:01:21;;;;;;;4.97;3.70;;;;;;;;;;5134076;27;20027;-75
2023/08/10 05:03:48;;;;;;;6.53;3.72;;;;;;;;;;5134109;27;20092;-74
2023/08/10 05:06:14;;;;;;;12.13;4.28;;;;;;;;;;5133863;27;20054;-75
2023/08/10 05:08:40;;;;;;;7.07;3.88;;;;;;;;;;5115843;27;20122;-75
2023/08/10 05:11:07;;;;;;;6.43;3.92;;;;;;;;;;5115797;27;20034;-74
2023/08/10 05:13:33;;;;;;;6.20;3.97;;;;;;;;;;5114974;27;20050;-76
2023/08/10 05:15:59;;;;;;;8.23;3.90;;;;;;;;;;5134069;27;20114;-75
2023/08/10 05:18:26;;;;;;;8.70;3.88;;;;;;;;;;5133527;27;20514;-75
2023/08/10 05:20:52;;;;;;;8.25;3.90;;;;;;;;;;5115490;27;20502;-75
2023/08/10 05:23:18;;;;;;;6.00;4.53;;;;;;;;;;5133402;27;20576;-74
2023/08/10 05:25:44;;;;;;;7.07;4.00;;;;;;;;;;5115242;27;20031;-76
2023/08/10 05:28:10;;;;;;;8.85;4.63;;;;;;;;;;5113576;27;20477;-76
2023/08/10 05:30:36;;;;;;;6.47;4.32;;;;;;;;;;5115289;27;20066;-75
2023/08/10 05:33:02;;;;;;;14.48;4.53;;;;;;;;;;5115139;27;20062;-75
2023/08/10 05:35:29;;;;;;;14.48;4.10;;;;;;;;;;5133279;27;20031;-76
2023/08/10 05:37:55;;;;;;;9.68;4.10;;;;;;;;;;5114994;27;20088;-75
2023/08/10 05:40:21;;;;;;;8.75;4.13;;;;;;;;;;5133099;27;20045;-75
2023/08/10 05:42:47;;;;;;;7.97;4.32;;;;;;;;;;5133317;27;20035;-75
2023/08/10 05:45:19;;;;;;;7.30;3.47;;;;;;;;;;5115092;27;20035;-75
2023/08/10 05:47:45;;;;;;;10.95;4.28;;;;;;;;;;5133072;27;20039;-76
2023/08/10 05:50:12;;;;;;;4.65;3.85;;;;;;;;;;5133186;27;20075;-75
2023/08/10 05:52:38;;;;;;;9.35;4.40;;;;;;;;;;5132844;27;20027;-76
2023/08/10 05:55:04;;;;;;;13.20;4.35;;;;;;;;;;5133081;27;20497;-75
2023/08/10 05:57:31;;;;;;;9.10;4.47;;;;;;;;;;5132716;27;20657;-75
2023/08/10 05:59:56;;;;;;;7.20;3.97;;;;;;;;;;5132975;27;20059;-76
2023/08/10 06:02:23;;;;;;;8.07;4.47;;;;;;;;;;5132464;27;20031;-76
2023/08/10 06:04:49;;;;;;;6.78;4.78;;;;;;;;;;5133009;27;20042;-76
2023/08/10 06:07:15;;;;;;;5.32;3.75;;;;;;;;;;5132648;27;20043;-77
2023/08/10 06:09:41;;;;;;;9.05;3.78;;;;;;;;;;5114307;27;20035;-76
2023/08/10 06:12:07;;;;;;;10.50;3.97;;;;;;;;;;5132859;27;20038;-75
2023/08/10 06:14:34;;;;;;;6.35;3.65;;;;;;;;;;5132389;27;20646;-76
2023/08/10 06:17:00;;;;;;;8.68;4.00;;;;;;;;;;5132874;27;20042;-76
2023/08/10 06:19:26;;;;;;;10.10;3.72;;;;;;;;;;5132290;27;20038;-75
2023/08/10 06:21:52;;;;;;;8.52;3.72;;;;;;;;;;5114347;27;20039;-75
2023/08/10 06:24:18;;;;;;;6.93;3.80;;;;;;;;;;5132503;27;20122;-75
2023/08/10 06:26:44;;;;;;;11.40;3.80;;;;;;;;;;5132446;27;20151;-75
2023/08/10 06:29:10;;;;;;;4.35;3.60;;;;;;;;;;5133521;27;20027;-76
2023/08/10 06:31:37;;;;;;;5.03;3.67;;;;;;;;;;5116074;27;20041;-76
2023/08/10 06:34:03;;;;;;;7.65;3.63;;;;;;;;;;5132474;27;20031;-76
2023/08/10 06:36:30;;;;;;;11.52;4.28;;;;;;;;;;5113690;27;20511;-77
2023/08/10 06:38:57;;;;;;;8.23;3.47;;;;;;;;;;5113517;27;20037;-74
2023/08/10 06:41:23;;;;;;;9.18;3.90;;;;;;;;;;5131910;27;20601;-75
2023/08/10 06:43:49;;;;;;;6.78;4.18;;;;;;;;;;5132104;27;20026;-75
2023/08/10 06:46:15;;;;;;;6.78;4.60;;;;;;;;;;5132241;27;20046;-75
2023/08/10 06:48:41;;;;;;;5.60;4.20;;;;;;;;;;5131736;27;20059;-75
2023/08/10 06:51:07;;;;;;;9.77;4.50;;;;;;;;;;5132070;27;20062;-76
2023/08/10 06:53:34;;;;;;;9.73;5.00;;;;;;;;;;5113466;27;20035;-76
2023/08/10 06:56:00;;;;;;;11.10;4.47;;;;;;;;;;5131922;27;20417;-75
2023/08/10 06:58:26;;;;;;;8.85;4.18;;;;;;;;;;5113102;27;20023;-75
2023/08/10 07:00:52;;;;;;;5.65;3.45;;;;;;;;;;5132030;27;20038;-76
2023/08/10 07:03:19;;;;;;;6.97;4.20;;;;;;;;;;5113312;27;20031;-76
2023/08/10 07:05:44;;;;;;;4.80;4.00;;;;;;;;;;5096222;27;20034;-76
2023/08/10 07:08:10;;;;;;;9.90;3.92;;;;;;;;;;5113348;27;20054;-76
2023/08/10 07:10:37;;;;;;;8.32;4.60;;;;;;;;;;5131660;27;20117;-75
2023/08/10 07:13:03;;;;;;;13.45;4.53;;;;;;;;;;5131530;27;20095;-75
2023/08/10 07:15:32;;;;;;;7.35;4.40;;;;;;;;;;5131391;27;20139;-76
2023/08/10 07:17:58;;;;;;;8.13;4.45;;;;;;;;;;5131580;27;20390;-75
2023/08/10 07:20:24;;;;;;;11.73;3.70;;;;;;;;;;5131380;27;20045;-75
2023/08/10 07:22:50;;;;;;;5.15;3.28;;;;;;;;;;5131469;27;20117;-77
2023/08/10 07:25:17;;;;;;;4.68;3.30;;;;;;;;;;5113572;27;20039;-74
2023/08/10 07:27:43;;;;;;;4.28;3.00;;;;;;;;;;5131182;27;20095;-74
2023/08/10 07:30:09;;;;;;;3.70;3.40;;;;;;;;;;5113037;27;20438;-75
2023/08/10 07:32:36;;;;;;;6.13;3.30;;;;;;;;;;5131107;27;20035;-76
2023/08/10 07:35:02;;;;;;;9.52;3.15;;;;;;;;;;5131482;27;20031;-75
2023/08/10 07:37:30;;;;;;;5.20;3.00;;;;;;;;;;5131162;27;20408;-76
2023/08/10 07:39:56;;;;;;;7.65;4.15;;;;;;;;;;5131101;27;20039;-74
2023/08/10 07:42:22;;;;;;;9.05;3.75;;;;;;;;;;5131250;27;20066;-76
2023/08/10 07:44:48;;;;;;;8.90;3.50;;;;;;;;;;5131004;27;20063;-75
2023/08/10 07:47:15;;;;;;;8.93;3.53;;;;;;;;;;5131243;27;20043;-75
2023/08/10 07:49:41;;;;;;;6.15;2.97;;;;;;;;;;5130993;27;20088;-76
2023/08/10 07:52:07;;;;;;;9.85;2.72;;;;;;;;;;5095218;27;20058;-75
2023/08/10 07:54:33;;;;;;;3.75;2.97;;;;;;;;;;5130890;27;20058;-76
2023/08/10 07:56:59;;;;;;;5.07;2.92;;;;;;;;;;5112906;27;20572;-75
2023/08/10 07:59:25;;;;;;;3.45;3.15;;;;;;;;;;5131624;27;20027;-76
2023/08/10 08:01:51;;;;;;;10.45;3.25;;;;;;;;;;5131909;27;20043;-75
2023/08/10 08:04:17;;;;;;;3.45;2.80;;;;;;;;;;5132430;27;20031;-75
2023/08/10 08:06:43;;;;;;;6.53;3.35;;;;;;;;;;5117990;28;20188;-75
2023/08/10 08:09:12;;;;;;;4.60;2.55;;;;;;;;;;5143672;27;20443;-75
2023/08/10 08:11:38;;;;;;;3.25;3.00;;;;;;;;;;5136976;27;20039;-75
2023/08/10 08:14:04;;;;;;;5.72;3.30;;;;;;;;;;5130790;27;20062;-75
2023/08/10 08:16:31;;;;;;;7.50;3.38;;;;;;;;;;5112261;27;20035;-75
2023/08/10 08:18:57;;;;;;;5.90;3.58;;;;;;;;;;5112851;28;20119;-76
2023/08/10 08:21:23;;;;;;;5.93;4.10;;;;;;;;;;5130691;27;20039;-76
2023/08/10 08:23:49;;;;;;;7.93;4.00;;;;;;;;;;5112026;28;20431;-75
2023/08/10 08:26:16;;;;;;;5.18;3.00;;;;;;;;;;5112198;28;20035;-76
2023/08/10 08:28:42;;;;;;;5.28;3.28;;;;;;;;;;5130414;27;20497;-76
2023/08/10 08:31:08;;;;;;;5.95;2.85;;;;;;;;;;5130657;27;20031;-75
2023/08/10 08:33:34;;;;;;;3.55;3.10;;;;;;;;;;5130379;27;20403;-76
2023/08/10 08:36:00;;;;;;;5.45;2.78;;;;;;;;;;5130706;27;20038;-76
2023/08/10 08:38:27;;;;;;;6.93;3.00;;;;;;;;;;5130562;27;20366;-74
2023/08/10 08:40:53;;;;;;;3.55;2.88;;;;;;;;;;5130730;27;20074;-75
2023/08/10 08:43:19;;;;;;;4.43;2.88;;;;;;;;;;5112175;27;20039;-75
2023/08/10 08:45:46;;;;;;;6.53;3.05;;;;;;;;;;5111963;27;20191;-76
2023/08/10 08:48:14;;;;;;;3.80;3.05;;;;;;;;;;5130462;27;20441;-76
2023/08/10 08:50:39;;;;;;;4.78;2.72;;;;;;;;;;5130389;27;20054;-76
2023/08/10 08:53:06;;;;;;;3.63;3.03;;;;;;;;;;5130582;27;20134;-77
2023/08/10 08:55:32;;;;;;;7.57;3.35;;;;;;;;;;5130269;27;20528;-76
2023/08/10 08:57:58;;;;;;;6.40;3.30;;;;;;;;;;5130527;27;20084;-76
2023/08/10 09:00:24;;;;;;;5.38;2.80;;;;;;;;;;5112355;28;20035;-75
2023/08/10 09:02:51;;;;;;;5.07;2.83;;;;;;;;;;5113607;27;20038;-77
2023/08/10 09:05:17;;;;;;;4.50;2.90;;;;;;;;;;5134039;27;20035;-76
2023/08/10 09:07:43;;;;;;;3.97;3.20;;;;;;;;;;5133914;27;20099;-77
2023/08/10 09:10:09;;;;;;;3.42;3.10;;;;;;;;;;5098840;27;20031;-77
2023/08/10 09:12:39;;;;;;;7.57;3.22;;;;;;;;;;5133544;27;20042;-75
2023/08/10 09:15:06;;;;;;;3.85;2.70;;;;;;;;;;5115613;27;20501;-76
2023/08/10 09:17:33;;;;;;;6.55;3.55;;;;;;;;;;5115328;27;20066;-76
2023/08/10 09:19:59;;;;;;;3.03;2.83;;;;;;;;;;5133802;27;20527;-76
2023/08/10 09:22:30;;;;;;;2.67;2.35;;;;;;;;;;5133725;27;20070;-75
2023/08/10 09:24:56;;;;;;;3.42;2.88;;;;;;;;;;5133766;27;20027;-75
2023/08/10 09:27:29;;;;;;;5.50;2.75;;;;;;;;;;5116133;27;20050;-75
2023/08/10 09:29:55;;;;;;;2.85;2.65;;;;;;;;;;5137661;27;20068;-76
2023/08/10 09:32:22;;;;;;;3.00;2.70;;;;;;;;;;5116362;27;20126;-75
2023/08/10 09:34:48;;;;;;;5.63;3.60;;;;;;;;;;5133398;27;20035;-75
2023/08/10 09:37:14;;;;;;;5.40;3.00;;;;;;;;;;5133614;27;20031;-76
2023/08/10 09:39:40;;;;;;;2.83;2.63;;;;;;;;;;5114906;27;20035;-75
2023/08/10 09:42:06;;;;;;;4.68;3.10;;;;;;;;;;5133572;27;20455;-76
2023/08/10 09:44:45;;;;;;;3.60;2.65;;;;;;;;;;5133114;27;20027;-75
2023/08/10 09:47:11;;;;;;;3.33;3.03;;;;;;;;;;5133292;27;20065;-77
2023/08/10 09:49:55;;;;;;;4.55;3.00;;;;;;;;;;5132943;27;20035;-75
2023/08/10 09:52:22;;;;;;;5.05;3.40;;;;;;;;;;5114814;27;20036;-75
2023/08/10 09:54:51;;;;;;;3.78;2.80;;;;;;;;;;5132730;27;20038;-76
2023/08/10 09:57:18;;;;;;;3.08;2.88;;;;;;;;;;5133094;27;20092;-75
2023/08/10 09:59:45;;;;;;;2.88;2.67;;;;;;;;;;5132799;27;20039;-76
2023/08/10 10:02:11;;;;;;;4.13;2.60;;;;;;;;;;5133001;27;20092;-76
2023/08/10 10:04:40;;;;;;;4.80;3.60;;;;;;;;;;5114397;27;20416;-75
2023/08/10 10:07:07;;;;;;;5.40;3.25;;;;;;;;;;5114652;27;20398;-76
2023/08/10 10:09:34;;;;;;;5.10;3.10;;;;;;;;;;5113970;27;20061;-75
2023/08/10 10:12:00;;;;;;;6.28;5.70;;;;;;;;;;5132846;27;20083;-74
2023/08/10 10:14:26;;;;;;;4.13;3.67;;;;;;;;;;5113324;27;20147;-76
2023/08/10 10:16:52;;;;;;;4.40;3.10;;;;;;;;;;5132800;27;20038;-75
2023/08/10 10:19:18;;;;;;;3.30;3.00;;;;;;;;;;5114294;27;20035;-75
2023/08/10 10:21:44;;;;;;;2.60;2.40;;;;;;;;;;5132515;27;20062;-77
2023/08/10 10:24:12;;;;;;;2.80;2.60;;;;;;;;;;5114194;27;20030;-75
2023/08/10 10:26:39;;;;;;;3.88;2.45;;;;;;;;;;5113795;27;20043;-75
2023/08/10 10:29:22;;;;;;;4.43;3.10;;;;;;;;;;5132495;27;20101;-75
2023/08/10 10:31:48;;;;;;;4.20;3.00;;;;;;;;;;5113891;27;20063;-75
2023/08/10 10:34:17;;;;;;;4.65;2.95;;;;;;;;;;5132366;27;20155;-75
2023/08/10 10:36:43;;;;;;;3.65;2.97;;;;;;;;;;5132154;27;20116;-76
2023/08/10 10:39:11;;;;;;;3.00;2.80;;;;;;;;;;5097026;27;20524;-74
2023/08/10 10:41:40;;;;;;;5.88;3.00;;;;;;;;;;5131854;27;20054;-74
2023/08/10 10:44:06;;;;;;;4.27;3.07;;;;;;;;;;5132279;27;20122;-74
2023/08/10 10:46:33;;;;;;;2.60;2.50;;;;;;;;;;5096894;27;20069;-75
2023/08/10 10:48:59;;;;;;;3.92;2.72;;;;;;;;;;5131934;27;20031;-75
2023/08/10 10:51:25;;;;;;;3.35;2.67;;;;;;;;;;5097132;27;20053;-76
2023/08/10 10:53:54;;;;;;;2.83;2.60;;;;;;;;;;5132307;27;20521;-76
2023/08/10 10:56:20;;;;;;;5.10;2.78;;;;;;;;;;5131991;27;20027;-77
2023/08/10 10:58:47;;;;;;;3.72;2.83;;;;;;;;;;5113775;27;20042;-76
2023/08/10 11:01:22;;;;;;;5.10;2.38;;;;;;;;;;5131933;27;20053;-76
2023/08/10 11:03:51;;;;;;;2.70;2.40;;;;;;;;;;5132002;27;20034;-76
2023/08/10 11:06:20;;;;;;;5.50;3.00;;;;;;;;;;5132233;27;20034;-75
2023/08/10 11:08:51;;;;;;;5.82;2.42;;;;;;;;;;5131963;27;20050;-76
2023/08/10 11:11:20;;;;;;;4.13;2.70;;;;;;;;;;5114100;27;20454;-76
2023/08/10 11:13:47;;;;;;;4.47;2.72;;;;;;;;;;5133116;27;20107;-76
2023/08/10 11:16:13;;;;;;;5.30;2.80;;;;;;;;;;5102673;27;20409;-73
2023/08/10 11:18:39;;;;;;;3.42;2.85;;;;;;;;;;5126791;27;20030;-75
2023/08/10 11:21:08;;;;;;;5.70;3.05;;;;;;;;;;5141974;27;20042;-76
2023/08/10 11:23:34;;;;;;;4.97;2.95;;;;;;;;;;5131580;27;20112;-76
2023/08/10 11:26:02;;;;;;;4.32;2.85;;;;;;;;;;5131204;27;20043;-76
2023/08/10 11:28:28;;;;;;;2.67;2.58;;;;;;;;;;5131292;27;20046;-76
2023/08/10 11:31:00;;;;;;;3.13;2.65;;;;;;;;;;5131203;27;20055;-75
2023/08/10 11:33:26;;;;;;;3.55;2.40;;;;;;;;;;5131213;27;20493;-76
2023/08/10 11:35:52;;;;;;;2.80;2.50;;;;;;;;;;5131245;27;20034;-75
2023/08/10 11:38:19;;;;;;;4.93;3.03;;;;;;;;;;5131078;27;20062;-75
2023/08/10 11:40:45;;;;;;;2.85;2.35;;;;;;;;;;5131171;27;20095;-75
2023/08/10 11:43:12;;;;;;;3.03;2.53;;;;;;;;;;5131282;27;20408;-74
2023/08/10 11:45:39;;;;;;;2.60;2.40;;;;;;;;;;5131145;27;20523;-75
2023/08/10 11:48:06;;;;;;;3.30;2.90;;;;;;;;;;5131029;27;20576;-75
2023/08/10 11:50:32;;;;;;;3.17;2.72;;;;;;;;;;5130852;27;20035;-75
2023/08/10 11:53:15;;;;;;;4.28;2.80;;;;;;;;;;5112447;27;20038;-76
2023/08/10 11:55:45;;;;;;;4.20;3.38;;;;;;;;;;5095143;28;20038;-74
2023/08/10 11:58:13;;;;;;;3.28;2.50;;;;;;;;;;5131210;27;20091;-75
2023/08/10 12:00:39;;;;;;;4.53;2.72;;;;;;;;;;5130996;27;20497;-75
2023/08/10 12:03:11;;;;;;;3.42;3.13;;;;;;;;;;5096094;27;20035;-76
2023/08/10 12:05:42;;;;;;;3.30;3.00;;;;;;;;;;5131003;27;20031;-75
2023/08/10 12:08:12;;;;;;;3.78;2.92;;;;;;;;;;5130947;27;20046;-75
2023/08/10 12:10:38;;;;;;;;;;;;;;;;;;5131036;27;20042;-77
2023/08/10 12:13:04;;;;;;;4.20;2.95;;;;;;;;;;5130371;27;20021;-75
2023/08/10 12:15:31;;;;;;;3.75;3.40;;;;;;;;;;5130814;27;20031;-74
2023/08/10 12:17:58;;;;;;;3.10;2.85;;;;;;;;;;5130363;27;20035;-74
2023/08/10 12:20:24;;;;;;;7.35;2.42;;;;;;;;;;5130633;27;20530;-76
2023/08/10 12:22:51;;;;;;;4.63;3.17;;;;;;;;;;5130718;27;20486;-75
2023/08/10 12:25:17;;;;;;;4.60;3.10;;;;;;;;;;5132246;27;20516;-75
2023/08/10 12:27:43;;;;;;;5.45;2.90;;;;;;;;;;5114279;27;20042;-75
2023/08/10 12:30:09;;;;;;;2.75;2.55;;;;;;;;;;5130821;27;20107;-77
2023/08/10 12:32:35;;;;;;;3.30;2.90;;;;;;;;;;5095727;27;20041;-76
2023/08/10 12:35:01;;;;;;;2.90;2.70;;;;;;;;;;5130387;27;20479;-76
2023/08/10 12:37:27;;;;;;;6.03;3.03;;;;;;;;;;5131734;27;20035;-77
2023/08/10 12:39:56;;;;;;;5.45;3.90;;;;;;;;;;5098896;27;20035;-76
2023/08/10 12:42:24;;;;;;;7.13;4.15;;;;;;;;;;5134593;27;20027;-75
2023/08/10 12:44:50;;;;;;;10.07;3.10;;;;;;;;;;5134202;27;20119;-76
2023/08/10 12:47:16;;;;;;;3.40;3.10;;;;;;;;;;5099095;27;20039;-75
2023/08/10 12:49:43;;;;;;;6.10;3.10;;;;;;;;;;5115912;27;20046;-73
2023/08/10 12:52:09;;;;;;;3.58;2.85;;;;;;;;;;5134357;27;20381;-75
2023/08/10 12:54:35;;;;;;;3.85;3.42;;;;;;;;;;5134157;27;20450;-76
2023/08/10 12:57:01;;;;;;;2.92;2.72;;;;;;;;;;5134190;27;20070;-76
2023/08/10 12:59:27;;;;;;;5.63;3.25;;;;;;;;;;5134263;27;20071;-75
2023/08/10 13:01:53;;;;;;;4.57;3.42;;;;;;;;;;5098659;27;20534;-75
2023/08/10 13:04:19;;;;;;;7.85;3.70;;;;;;;;;;5134065;27;20114;-76
2023/08/10 13:06:45;;;;;;;5.10;4.60;;;;;;;;;;5133858;27;20126;-77
2023/08/10 13:09:11;;;;;;;3.85;3.47;;;;;;;;;;5134080;27;20077;-76
2023/08/10 13:11:37;;;;;;;4.85;3.00;;;;;;;;;;5133942;27;20023;-75
2023/08/10 13:14:03;;;;;;;2.60;2.40;;;;;;;;;;5133536;27;20051;-76
2023/08/10 13:16:29;;;;;;;3.97;3.10;;;;;;;;;;5115448;27;20038;-75
2023/08/10 13:18:56;;;;;;;4.05;2.90;;;;;;;;;;5133769;27;20114;-76
2023/08/10 13:21:22;;;;;;;2.92;2.72;;;;;;;;;;5134020;27;20050;-76
2023/08/10 13:23:48;;;;;;;3.50;2.67;;;;;;;;;;5134052;27;20039;-74
2023/08/10 13:26:15;;;;;;;3.35;2.88;;;;;;;;;;5134274;27;20581;-75
2023/08/10 13:28:41;;;;;;;2.80;2.60;;;;;;;;;;5134953;27;20039;-78
2023/08/10 13:31:07;;;;;;;7.53;2.90;;;;;;;;;;5135599;27;20094;-76
2023/08/10 13:33:33;;;;;;;3.08;2.70;;;;;;;;;;5141344;27;20441;-75
2023/08/10 13:36:00;;;;;;;3.85;2.50;;;;;;;;;;5144692;27;20118;-75
2023/08/10 13:38:26;;;;;;;3.85;2.60;;;;;;;;;;5124932;27;20504;-75
2023/08/10 13:40:52;;;;;;;3.08;2.80;;;;;;;;;;5134697;27;20035;-75
2023/08/10 13:43:18;;;;;;;3.30;3.00;;;;;;;;;;5133263;27;20066;-75
2023/08/10 13:45:44;;;;;;;3.28;2.97;;;;;;;;;;5133293;27;20035;-76
2023/08/10 13:48:10;;;;;;;4.03;2.78;;;;;;;;;;5114400;27;20095;-76
2023/08/10 13:50:36;;;;;;;2.90;2.70;;;;;;;;;;5132242;27;20034;-75
2023/08/10 13:53:03;;;;;;;5.32;2.88;;;;;;;;;;5133027;27;20501;-77
2023/08/10 13:55:30;;;;;;;4.00;3.00;;;;;;;;;;5132879;27;20473;-76
2023/08/10 13:57:56;;;;;;;5.40;3.00;;;;;;;;;;5132919;27;20115;-76
2023/08/10 14:00:22;;;;;;;2.72;2.53;;;;;;;;;;5132732;27;20532;-75
2023/08/10 14:02:48;;;;;;;3.03;2.75;;;;;;;;;;5132843;27;20110;-76
2023/08/10 14:05:14;;;;;;;3.08;2.88;;;;;;;;;;5133120;27;20031;-76
2023/08/10 14:07:40;;;;;;;3.60;3.00;;;;;;;;;;5133616;27;20077;-76
2023/08/10 14:10:06;;;;;;;8.63;3.70;;;;;;;;;;5132804;27;20041;-75
2023/08/10 14:12:32;;;;;;;3.00;2.80;;;;;;;;;;5115127;27;20540;-76
2023/08/10 14:14:58;;;;;;;3.75;3.42;;;;;;;;;;5132729;27;20118;-75
2023/08/10 14:17:24;;;;;;;4.45;3.08;;;;;;;;;;5132993;27;20027;-76
2023/08/10 14:19:50;;;;;;;5.57;3.55;;;;;;;;;;5132528;27;20039;-76
2023/08/10 14:22:16;;;;;;;3.15;2.78;;;;;;;;;;5132831;27;20102;-76
2023/08/10 14:24:42;;;;;;;6.05;2.88;;;;;;;;;;5133343;27;20049;-74
2023/08/10 14:27:08;;;;;;;4.95;2.78;;;;;;;;;;5132502;27;20092;-76
2023/08/10 14:29:35;;;;;;;5.82;3.72;;;;;;;;;;5132290;27;20042;-76
2023/08/10 14:32:01;;;;;;;4.03;3.10;;;;;;;;;;5133144;27;20038;-74
2023/08/10 14:34:27;;;;;;;4.93;2.83;;;;;;;;;;5132347;27;20027;-76
2023/08/10 14:36:53;;;;;;;3.40;3.03;;;;;;;;;;5113592;27;20093;-76
2023/08/10 14:39:19;;;;;;;6.22;3.20;;;;;;;;;;5134355;27;20027;-74
2023/08/10 14:41:50;;;;;;;11.00;3.80;;;;;;;;;;5117383;27;20035;-76